createdAt,value
2024-03-12T00:01:10.015Z,100770.13
2024-03-12T00:03:45.467Z,100771.91
2024-03-12T00:06:13.157Z,100777.19
2024-03-12T00:08:43.819Z,100777.25
2024-03-12T00:11:11.322Z,100774.56
2024-03-12T00:13:38.560Z,100786.81
2024-03-12T00:16:06.836Z,100781.56
2024-03-12T00:18:34.894Z,100783.25
2024-03-12T00:21:02.363Z,100791.09
2024-03-12T00:23:30.174Z,100789.38
2024-03-12T00:25:57.636Z,100795.47
2024-03-12T00:28:25.014Z,100798.94
2024-03-12T00:30:54.892Z,100798.06
2024-03-12T00:33:22.344Z,100801.50
2024-03-12T00:35:49.709Z,100812.88
2024-03-12T00:38:19.193Z,100809.31
2024-03-12T00:40:49.228Z,100808.47
2024-03-12T00:43:16.591Z,100810.22
2024-03-12T00:45:46.134Z,100811.97
2024-03-12T00:48:15.052Z,100817.22
2024-03-12T00:50:46.365Z,100812.88
2024-03-12T00:53:15.085Z,100823.31
2024-03-12T00:55:43.707Z,100825.97
2024-03-12T00:58:13.905Z,100826.88
2024-03-12T01:00:42.631Z,100825.09
2024-03-12T01:03:10.830Z,100832.06
2024-03-12T01:05:39.610Z,100834.75
2024-03-12T01:08:08.735Z,100843.47
2024-03-12T01:10:37.409Z,100836.50
2024-03-12T01:13:12.768Z,100836.50
2024-03-12T01:15:41.151Z,100841.75
2024-03-12T01:18:09.701Z,100845.22
2024-03-12T01:20:37.671Z,100842.66
2024-03-12T01:23:08.513Z,100847.88
2024-03-12T01:25:37.669Z,100847.00
2024-03-12T01:28:09.140Z,100844.41
2024-03-12T01:30:38.323Z,100842.72
2024-03-12T01:33:09.464Z,100841.00
2024-03-12T01:35:41.111Z,100843.63
2024-03-12T01:38:12.013Z,100843.66
2024-03-12T01:40:40.802Z,100851.56
2024-03-12T01:43:09.211Z,100854.22
2024-03-12T01:45:37.468Z,100859.50
2024-03-12T01:48:09.993Z,100856.91
2024-03-12T01:50:40.410Z,100870.88
2024-03-12T01:53:08.952Z,100855.09
2024-03-12T01:55:39.441Z,100866.41
2024-03-12T01:58:07.704Z,100860.31
2024-03-12T02:00:35.614Z,100862.03
2024-03-12T02:03:03.086Z,100867.28
2024-03-12T02:05:30.629Z,100870.78
2024-03-12T02:07:58.034Z,100880.41
2024-03-12T02:10:26.336Z,100871.66
2024-03-12T02:12:53.997Z,100879.50
2024-03-12T02:15:24.978Z,100876.88
2024-03-12T02:17:55.340Z,100876.84
2024-03-12T02:20:24.289Z,100876.00
2024-03-12T02:22:56.813Z,100878.59
2024-03-12T02:25:24.705Z,100876.81
2024-03-12T02:27:53.419Z,100877.69
2024-03-12T02:30:22.037Z,100880.31
2024-03-12T02:32:50.101Z,100886.47
2024-03-12T02:35:18.458Z,100889.09
2024-03-12T02:37:46.368Z,100893.50
2024-03-12T02:40:15.047Z,100893.56
2024-03-12T02:42:43.948Z,100895.31
2024-03-12T02:45:21.959Z,100891.81
2024-03-12T02:47:49.573Z,100894.47
2024-03-12T02:50:17.585Z,100903.22
2024-03-12T02:52:46.832Z,100897.94
2024-03-12T02:55:14.867Z,100901.38
2024-03-12T02:57:42.595Z,100901.38
2024-03-12T03:00:14.390Z,100904.88
2024-03-12T03:02:45.186Z,100912.72
2024-03-12T03:05:14.321Z,100905.75
2024-03-12T03:07:42.550Z,100907.44
2024-03-12T03:10:14.314Z,100907.44
2024-03-12T03:12:45.589Z,100908.38
2024-03-12T03:15:14.078Z,100915.34
2024-03-12T03:17:47.094Z,100915.38
2024-03-12T03:20:17.294Z,100919.78
2024-03-12T03:22:45.755Z,100922.41
2024-03-12T03:25:13.898Z,100926.78
2024-03-12T03:27:41.562Z,100925.94
2024-03-12T03:30:11.425Z,100929.44
2024-03-12T03:32:38.714Z,100927.66
2024-03-12T03:35:09.124Z,100930.28
2024-03-12T03:37:36.801Z,100934.69
2024-03-12T03:40:05.944Z,100937.31
2024-03-12T03:42:33.339Z,100934.69
2024-03-12T03:45:00.639Z,100935.56
2024-03-12T03:47:35.191Z,100934.72
2024-03-12T03:50:06.447Z,100943.47
2024-03-12T03:52:33.863Z,100933.88
2024-03-12T03:55:01.268Z,100946.16
2024-03-12T03:57:28.533Z,100943.56
2024-03-12T03:59:57.807Z,100953.22
2024-03-12T04:02:26.080Z,100951.47
2024-03-12T04:04:53.364Z,100961.09
2024-03-12T04:07:26.630Z,100962.00
2024-03-12T04:09:56.019Z,100964.75
2024-03-12T04:12:23.777Z,100967.38
2024-03-12T04:14:51.004Z,100966.50
2024-03-12T04:17:20.245Z,100982.22
2024-03-12T04:19:49.117Z,100988.38
2024-03-12T04:22:20.400Z,100988.34
2024-03-12T04:24:48.065Z,100984.94
2024-03-12T04:27:16.183Z,100991.00
2024-03-12T04:29:43.900Z,100989.31
2024-03-12T04:32:11.308Z,100998.06
2024-03-12T04:34:38.614Z,101003.28
2024-03-12T04:37:06.456Z,101002.44
2024-03-12T04:39:34.446Z,101007.66
2024-03-12T04:42:06.336Z,100999.81
2024-03-12T04:44:34.403Z,101005.94
2024-03-12T04:47:02.032Z,101004.16
2024-03-12T04:49:29.380Z,101000.69
2024-03-12T04:51:57.044Z,101007.69
2024-03-12T04:54:24.326Z,101010.28
2024-03-12T04:56:52.079Z,101019.03
2024-03-12T04:59:19.386Z,101019.03
2024-03-12T05:01:48.909Z,101017.31
2024-03-12T05:04:22.542Z,101025.13
2024-03-12T05:06:51.192Z,101037.34
2024-03-12T05:09:19.504Z,101037.38
2024-03-12T05:11:47.304Z,101047.00
2024-03-12T05:14:14.850Z,101040.03
2024-03-12T05:16:42.767Z,101049.66
2024-03-12T05:19:12.253Z,101056.69
2024-03-12T05:21:39.966Z,101054.09
2024-03-12T05:24:07.534Z,101066.38
2024-03-12T05:26:37.737Z,101067.28
2024-03-12T05:29:05.308Z,101074.31
2024-03-12T05:31:38.670Z,101078.69
2024-03-12T05:34:28.915Z,101070.81
2024-03-12T05:37:05.775Z,101080.38
2024-03-12T05:39:49.673Z,101078.63
2024-03-12T05:42:35.508Z,101083.78
2024-03-12T05:45:21.316Z,101078.44
2024-03-12T05:48:07.207Z,101088.81
2024-03-12T05:50:34.474Z,101088.69
2024-03-12T05:53:01.643Z,101100.88
2024-03-12T05:55:28.766Z,101107.81
2024-03-12T05:57:55.937Z,101102.63
2024-03-12T06:00:24.426Z,101108.78
2024-03-12T06:02:51.677Z,101108.78
2024-03-12T06:05:18.940Z,101116.72
2024-03-12T06:07:46.387Z,101115.88
2024-03-12T06:10:13.687Z,101124.69
2024-03-12T06:12:41.536Z,101123.00
2024-03-12T06:15:12.494Z,101125.66
2024-03-12T06:17:39.792Z,101119.59
2024-03-12T06:20:11.182Z,101132.72
2024-03-12T06:22:39.010Z,101136.22
2024-03-12T06:25:10.487Z,101140.56
2024-03-12T06:27:41.712Z,101137.94
2024-03-12T06:30:09.665Z,101147.53
2024-03-12T06:32:36.918Z,101147.53
2024-03-12T06:35:04.844Z,101150.19
2024-03-12T06:37:32.021Z,101152.81
2024-03-12T06:39:59.992Z,101151.94
2024-03-12T06:42:27.727Z,101160.69
2024-03-12T06:44:55.921Z,101165.03
2024-03-12T06:47:25.545Z,101160.69
2024-03-12T06:49:55.606Z,101171.19
2024-03-12T06:52:27.714Z,101176.41
2024-03-12T06:54:55.088Z,101180.78
2024-03-12T06:57:23.489Z,101178.16
2024-03-12T06:59:51.096Z,101183.41
2024-03-12T07:02:23.534Z,101186.03
2024-03-12T07:04:52.172Z,101197.38
2024-03-12T07:07:20.749Z,101196.53
2024-03-12T07:09:50.485Z,101198.25
2024-03-12T07:12:19.596Z,101204.34
2024-03-12T07:14:55.813Z,101211.31
2024-03-12T07:17:23.981Z,101206.94
2024-03-12T07:19:52.162Z,101201.66
2024-03-12T07:22:19.554Z,101203.34
2024-03-12T07:24:47.096Z,101205.94
2024-03-12T07:27:14.804Z,101210.28
2024-03-12T07:29:45.120Z,101206.75
2024-03-12T07:32:14.444Z,101210.25
2024-03-12T07:34:43.322Z,101218.09
2024-03-12T07:37:13.094Z,101216.34
2024-03-12T07:39:40.453Z,101209.34
2024-03-12T07:42:13.486Z,101223.34
2024-03-12T07:44:42.740Z,101215.47
2024-03-12T07:47:11.369Z,101225.06
2024-03-12T07:49:38.944Z,101229.41
2024-03-12T07:52:07.200Z,101230.28
2024-03-12T07:54:35.135Z,101232.00
2024-03-12T07:57:02.813Z,101233.72
2024-03-12T07:59:31.457Z,101231.97
2024-03-12T08:01:59.455Z,101239.81
2024-03-12T08:04:27.278Z,101230.13
2024-03-12T08:06:55.268Z,101240.63
2024-03-12T08:09:22.541Z,101236.25
2024-03-12T08:11:50.667Z,101246.69
2024-03-12T08:14:18.797Z,101248.41
2024-03-12T08:16:46.112Z,101242.25
2024-03-12T08:19:14.032Z,101241.38
2024-03-12T08:21:41.410Z,101247.50
2024-03-12T08:24:11.942Z,101247.50
2024-03-12T08:26:39.225Z,101250.97
2024-03-12T08:29:06.489Z,101257.97
2024-03-12T08:31:38.716Z,101248.31
2024-03-12T08:34:10.542Z,101257.00
2024-03-12T08:36:37.900Z,101256.06
2024-03-12T08:39:05.892Z,101256.84
2024-03-12T08:41:34.401Z,101262.94
2024-03-12T08:44:02.108Z,101268.22
2024-03-12T08:46:29.961Z,101266.47
2024-03-12T08:48:57.313Z,101273.44
2024-03-12T08:51:25.243Z,101269.91
2024-03-12T08:53:52.730Z,101274.28
2024-03-12T08:56:22.705Z,101277.75
2024-03-12T08:58:50.450Z,101280.38
2024-03-12T09:01:19.445Z,101281.22
2024-03-12T09:03:47.593Z,101279.44
2024-03-12T09:06:15.046Z,101282.81
2024-03-12T09:08:43.761Z,101286.31
2024-03-12T09:11:17.106Z,101285.38
2024-03-12T09:13:46.324Z,101287.94
2024-03-12T09:16:14.342Z,101292.28
2024-03-12T09:18:43.500Z,101293.16
2024-03-12T09:21:15.176Z,101301.88
2024-03-12T09:23:53.241Z,101299.22
2024-03-12T09:26:29.371Z,101301.75
2024-03-12T09:28:56.967Z,101295.50
2024-03-12T09:31:24.728Z,101295.41
2024-03-12T09:33:53.380Z,101303.16
2024-03-12T09:36:22.392Z,101295.19
2024-03-12T09:38:51.922Z,101299.47
2024-03-12T09:41:25.164Z,101299.41
2024-03-12T09:43:55.064Z,101296.72
2024-03-12T09:46:23.723Z,101298.31
2024-03-12T09:48:52.954Z,101311.25
2024-03-12T09:51:22.546Z,101308.59
2024-03-12T09:53:50.788Z,101315.63
2024-03-12T09:56:19.615Z,101316.41
2024-03-12T09:58:48.802Z,101312.84
2024-03-12T10:01:16.409Z,101314.66
2024-03-12T10:03:43.923Z,101315.59
2024-03-12T10:06:11.255Z,101319.09
2024-03-12T10:08:38.514Z,101319.94
2024-03-12T10:11:10.110Z,101321.53
2024-03-12T10:13:41.609Z,101320.53
2024-03-12T10:16:09.645Z,101319.56
2024-03-12T10:18:40.221Z,101323.91
2024-03-12T10:21:08.300Z,101322.09
2024-03-12T10:23:41.323Z,101314.97
2024-03-12T10:26:17.395Z,101325.34
2024-03-12T10:28:47.152Z,101326.94
2024-03-12T10:31:16.132Z,101321.56
2024-03-12T10:33:49.797Z,101320.59
2024-03-12T10:36:34.652Z,101326.72
2024-03-12T10:39:07.928Z,101327.53
2024-03-12T10:41:35.498Z,101326.56
2024-03-12T10:44:17.552Z,101328.22
2024-03-12T10:46:46.304Z,101335.97
2024-03-12T10:49:18.712Z,101336.84
2024-03-12T10:51:46.432Z,101340.41
2024-03-12T10:54:15.671Z,101335.22
2024-03-12T10:56:46.984Z,101339.72
2024-03-12T10:59:17.575Z,101330.25
2024-03-12T11:01:45.125Z,101332.94
2024-03-12T11:04:14.575Z,101340.06
2024-03-12T11:06:41.997Z,101345.41
2024-03-12T11:09:13.182Z,101347.16
2024-03-12T11:11:40.733Z,101341.72
2024-03-12T11:14:08.946Z,101343.34
2024-03-12T11:16:37.076Z,101345.06
2024-03-12T11:19:24.145Z,101340.75
2024-03-12T11:22:10.924Z,101340.81
2024-03-12T11:24:48.987Z,101339.09
2024-03-12T11:27:26.753Z,101338.16
2024-03-12T11:30:09.437Z,101342.56
2024-03-12T11:32:43.073Z,101339.97
2024-03-12T11:35:19.341Z,101335.66
2024-03-12T11:37:48.601Z,101337.34
2024-03-12T11:40:30.421Z,101336.38
2024-03-12T11:42:59.511Z,101335.31
2024-03-12T11:45:49.011Z,101331.53
2024-03-12T11:48:22.226Z,101333.06
2024-03-12T11:51:00.347Z,101339.00
2024-03-12T11:53:39.426Z,101334.53
2024-03-12T11:56:09.219Z,101330.13
2024-03-12T11:58:49.189Z,101335.38
2024-03-12T12:01:40.105Z,101335.28
2024-03-12T12:04:10.926Z,101329.91
2024-03-12T12:06:38.409Z,101328.88
2024-03-12T12:09:09.862Z,101329.72
2024-03-12T12:11:39.582Z,101326.28
2024-03-12T12:14:10.269Z,101319.28
2024-03-12T12:16:39.602Z,101317.50
2024-03-12T12:19:13.800Z,101313.75
2024-03-12T12:21:46.482Z,101313.47
2024-03-12T12:24:14.854Z,101317.31
2024-03-12T12:26:45.818Z,101304.41
2024-03-12T12:29:15.838Z,101313.66
2024-03-12T12:31:44.055Z,101314.28
2024-03-12T12:34:12.545Z,101312.28
2024-03-12T12:36:45.025Z,101309.66
2024-03-12T12:39:18.136Z,101306.16
2024-03-12T12:41:47.393Z,101315.94
2024-03-12T12:44:22.163Z,101314.94
2024-03-12T12:46:50.067Z,101314.69
2024-03-12T12:49:18.654Z,101316.50
2024-03-12T12:51:47.372Z,101313.00
2024-03-12T12:54:20.018Z,101311.28
2024-03-12T12:56:47.940Z,101311.34
2024-03-12T12:59:24.359Z,101317.75
2024-03-12T13:01:52.082Z,101312.78
2024-03-12T13:04:28.892Z,101317.31
2024-03-12T13:06:58.096Z,101316.66
2024-03-12T13:09:35.275Z,101311.53
2024-03-12T13:12:11.023Z,101309.03
2024-03-12T13:14:38.473Z,101311.66
2024-03-12T13:17:07.174Z,101319.47
2024-03-12T13:19:34.785Z,101316.53
2024-03-12T13:22:04.004Z,101315.13
2024-03-12T13:24:33.048Z,101316.22
2024-03-12T13:27:00.483Z,101309.50
2024-03-12T13:29:29.245Z,101310.75
2024-03-12T13:31:56.707Z,101308.13
2024-03-12T13:34:25.041Z,101301.28
2024-03-12T13:36:53.025Z,101308.34
2024-03-12T13:39:20.649Z,101303.63
2024-03-12T13:41:47.948Z,101310.44
2024-03-12T13:44:15.361Z,101302.34
2024-03-12T13:46:44.667Z,101303.25
2024-03-12T13:49:16.782Z,101303.94
2024-03-12T13:51:46.411Z,101303.13
2024-03-12T13:54:13.800Z,101300.47
2024-03-12T13:56:41.291Z,101295.28
2024-03-12T13:59:08.788Z,101291.16
2024-03-12T14:01:36.505Z,101293.09
2024-03-12T14:04:04.259Z,101295.00
2024-03-12T14:06:33.621Z,101288.88
2024-03-12T14:09:01.009Z,101291.03
2024-03-12T14:11:28.574Z,101289.69
2024-03-12T14:13:56.711Z,101293.56
2024-03-12T14:16:24.943Z,101298.28
2024-03-12T14:18:53.909Z,101290.44
2024-03-12T14:21:22.383Z,101288.69
2024-03-12T14:23:50.309Z,101287.78
2024-03-12T14:26:17.908Z,101281.03
2024-03-12T14:28:46.557Z,101281.25
2024-03-12T14:31:17.348Z,101274.47
2024-03-12T14:33:44.826Z,101278.06
2024-03-12T14:36:12.242Z,101271.13
2024-03-12T14:38:39.627Z,101266.69
2024-03-12T14:41:10.039Z,101263.91
2024-03-12T14:43:37.293Z,101260.94
2024-03-12T14:46:05.991Z,101267.53
2024-03-12T14:48:35.318Z,101259.88
2024-03-12T14:51:02.707Z,101259.16
2024-03-12T14:53:29.981Z,101258.81
2024-03-12T14:56:00.408Z,101256.22
2024-03-12T14:58:28.671Z,101261.03
2024-03-12T15:00:55.882Z,101255.47
2024-03-12T15:03:23.118Z,101257.88
2024-03-12T15:05:54.810Z,101255.88
2024-03-12T15:08:22.133Z,101255.47
2024-03-12T15:10:49.394Z,101254.00
2024-03-12T15:13:18.714Z,101256.84
2024-03-12T15:15:48.552Z,101252.59
2024-03-12T15:18:17.415Z,101263.31
2024-03-12T15:20:47.318Z,101258.16
2024-03-12T15:23:14.543Z,101246.81
2024-03-12T15:25:43.131Z,101253.06
2024-03-12T15:28:10.473Z,101250.56
2024-03-12T15:30:41.187Z,101248.94
2024-03-12T15:33:13.879Z,101247.22
2024-03-12T15:35:53.776Z,101240.19
2024-03-12T15:38:21.665Z,101238.47
2024-03-12T15:40:49.531Z,101249.13
2024-03-12T15:43:20.383Z,101246.72
2024-03-12T15:45:47.676Z,101244.28
2024-03-12T15:48:14.980Z,101242.72
2024-03-12T15:50:42.242Z,101235.72
2024-03-12T15:53:12.828Z,101239.38
2024-03-12T15:55:41.442Z,101242.19
2024-03-12T15:58:08.955Z,101243.22
2024-03-12T16:00:37.446Z,101239.00
2024-03-12T16:03:05.674Z,101235.63
2024-03-12T16:05:32.836Z,101238.41
2024-03-12T16:08:04.430Z,101229.75
2024-03-12T16:10:33.087Z,101233.38
2024-03-12T16:13:04.005Z,101235.25
2024-03-12T16:15:32.836Z,101228.41
2024-03-12T16:18:03.451Z,101236.34
2024-03-12T16:20:30.716Z,101227.69
2024-03-12T16:22:57.905Z,101238.28
2024-03-12T16:25:25.215Z,101242.66
2024-03-12T16:27:52.474Z,101238.34
2024-03-12T16:30:28.706Z,101249.78
2024-03-12T16:32:59.453Z,101241.97
2024-03-12T16:35:30.335Z,101250.03
2024-03-12T16:38:01.261Z,101254.63
2024-03-12T16:40:28.569Z,101249.56
2024-03-12T16:42:57.069Z,101255.75
2024-03-12T16:45:30.847Z,101245.38
2024-03-12T16:48:02.436Z,101242.84
2024-03-12T16:50:29.621Z,101256.09
2024-03-12T16:52:56.876Z,101258.88
2024-03-12T16:55:24.514Z,101252.91
2024-03-12T16:57:52.236Z,101251.25
2024-03-12T17:00:19.810Z,101247.88
2024-03-12T17:02:49.255Z,101251.44
2024-03-12T17:05:24.034Z,101242.78
2024-03-12T17:07:59.698Z,101250.69
2024-03-12T17:10:28.870Z,101249.91
2024-03-12T17:12:57.095Z,101247.38
2024-03-12T17:15:25.480Z,101251.81
2024-03-12T17:17:57.101Z,101251.03
2024-03-12T17:20:28.394Z,101249.31
2024-03-12T17:22:56.703Z,101255.47
2024-03-12T17:25:25.223Z,101247.63
2024-03-12T17:27:53.637Z,101249.44
2024-03-12T17:30:25.377Z,101244.19
2024-03-12T17:32:56.628Z,101240.75
2024-03-12T17:35:24.753Z,101241.66
2024-03-12T17:38:02.177Z,101239.00
2024-03-12T17:40:33.774Z,101234.66
2024-03-12T17:43:09.930Z,101247.78
2024-03-12T17:45:39.089Z,101239.06
2024-03-12T17:48:10.027Z,101235.63
2024-03-12T17:50:39.064Z,101237.41
2024-03-12T17:53:10.299Z,101240.97
2024-03-12T17:55:39.478Z,101234.88
2024-03-12T17:58:07.553Z,101236.75
2024-03-12T18:00:37.915Z,101236.81
2024-03-12T18:03:07.385Z,101243.00
2024-03-12T18:05:34.925Z,101240.41
2024-03-12T18:08:08.448Z,101237.88
2024-03-12T18:10:37.507Z,101237.00
2024-03-12T18:13:05.069Z,101236.19
2024-03-12T18:15:32.534Z,101239.75
2024-03-12T18:18:01.919Z,101236.31
2024-03-12T18:20:31.392Z,101240.72
2024-03-12T18:23:01.742Z,101233.75
2024-03-12T18:25:31.602Z,101233.78
2024-03-12T18:27:59.125Z,101227.66
2024-03-12T18:30:28.492Z,101234.66
2024-03-12T18:32:55.999Z,101235.53
2024-03-12T18:35:23.907Z,101234.72
2024-03-12T18:37:52.261Z,101228.56
2024-03-12T18:40:23.359Z,101232.09
2024-03-12T18:42:53.356Z,101225.13
2024-03-12T18:45:23.660Z,101227.78
2024-03-12T18:47:54.249Z,101237.41
2024-03-12T18:50:25.911Z,101236.59
2024-03-12T18:52:53.760Z,101237.50
2024-03-12T18:55:23.318Z,101231.41
2024-03-12T18:57:52.042Z,101234.06
2024-03-12T19:00:20.254Z,101237.59
2024-03-12T19:02:49.711Z,101228.00
2024-03-12T19:05:21.755Z,101229.72
2024-03-12T19:07:51.743Z,101235.00
2024-03-12T19:10:21.154Z,101231.47
2024-03-12T19:12:49.238Z,101228.00
2024-03-12T19:15:22.449Z,101215.75
2024-03-12T19:17:51.793Z,101213.16
2024-03-12T19:20:21.064Z,101210.56
2024-03-12T19:22:51.642Z,101208.81
2024-03-12T19:25:20.011Z,101202.75
2024-03-12T19:27:52.812Z,101199.28
2024-03-12T19:30:21.437Z,101199.28
2024-03-12T19:32:53.342Z,101194.03
2024-03-12T19:35:21.033Z,101188.81
2024-03-12T19:37:50.144Z,101186.19
2024-03-12T19:40:18.335Z,101187.06
2024-03-12T19:42:50.685Z,101191.47
2024-03-12T19:45:28.585Z,101188.84
2024-03-12T19:48:01.261Z,101187.13
2024-03-12T19:50:29.361Z,101185.41
2024-03-12T19:52:57.716Z,101185.34
2024-03-12T19:55:30.219Z,101186.22
2024-03-12T19:58:06.244Z,101194.09
2024-03-12T20:00:34.876Z,101186.22
2024-03-12T20:03:07.541Z,101185.31
2024-03-12T20:05:38.371Z,101182.69
2024-03-12T20:08:09.884Z,101182.72
2024-03-12T20:10:40.028Z,101182.72
2024-03-12T20:13:44.353Z,101186.22
2024-03-12T20:16:16.346Z,101185.31
2024-03-12T20:18:47.109Z,101180.97
2024-03-12T20:21:20.464Z,101185.31
2024-03-12T20:23:47.705Z,101179.19
2024-03-12T20:26:15.661Z,101179.19
2024-03-12T20:28:43.031Z,101180.94
2024-03-12T20:31:10.916Z,101186.19
2024-03-12T20:33:39.830Z,101186.16
2024-03-12T20:36:08.463Z,101190.50
2024-03-12T20:38:35.621Z,101187.00
2024-03-12T20:41:03.939Z,101180.84
2024-03-12T20:43:31.318Z,101178.22
2024-03-12T20:46:00.609Z,101175.59
2024-03-12T20:48:32.746Z,101175.59
2024-03-12T20:51:00.142Z,101181.75
2024-03-12T20:53:28.304Z,101192.25
2024-03-12T20:55:57.016Z,101183.53
2024-03-12T20:58:24.710Z,101192.28
2024-03-12T21:00:52.963Z,101195.75
2024-03-12T21:03:20.584Z,101196.66
2024-03-12T21:05:48.807Z,101193.13
2024-03-12T21:08:17.669Z,101190.50
2024-03-12T21:10:46.552Z,101181.78
2024-03-12T21:13:14.954Z,101183.59
2024-03-12T21:15:42.486Z,101187.13
2024-03-12T21:18:10.799Z,101190.72
2024-03-12T21:20:38.083Z,101191.59
2024-03-12T21:23:07.058Z,101203.88
2024-03-12T21:25:35.029Z,101194.22
2024-03-12T21:28:02.465Z,101184.56
2024-03-12T21:30:29.721Z,101177.59
2024-03-12T21:32:56.949Z,101181.03
2024-03-12T21:35:27.087Z,101175.78
2024-03-12T21:37:54.363Z,101177.53
2024-03-12T21:40:22.483Z,101176.63
2024-03-12T21:42:49.733Z,101167.88
2024-03-12T21:45:19.278Z,101156.50
2024-03-12T21:47:48.671Z,101158.28
2024-03-12T21:50:17.195Z,101169.72
2024-03-12T21:52:45.973Z,101176.69
2024-03-12T21:55:13.508Z,101173.19
2024-03-12T21:57:44.445Z,101176.63
2024-03-12T22:00:20.221Z,101169.63
2024-03-12T22:02:49.322Z,101166.09
2024-03-12T22:05:17.747Z,101160.00
2024-03-12T22:07:45.527Z,101163.47
2024-03-12T22:10:13.891Z,101161.75
2024-03-12T22:12:42.495Z,101166.13
2024-03-12T22:15:13.109Z,101167.00
2024-03-12T22:17:44.631Z,101163.47
2024-03-12T22:20:17.868Z,101154.78
2024-03-12T22:22:45.924Z,101160.84
2024-03-12T22:25:15.911Z,101161.72
2024-03-12T22:27:44.988Z,101165.22
2024-03-12T22:30:13.468Z,101165.22
2024-03-12T22:32:43.471Z,101162.53
2024-03-12T22:35:11.676Z,101152.00
2024-03-12T22:37:39.416Z,101150.22
2024-03-12T22:40:11.119Z,101152.84
2024-03-12T22:42:39.756Z,101155.47
2024-03-12T22:45:08.395Z,101151.09
2024-03-12T22:47:36.103Z,101160.66
2024-03-12T22:50:03.772Z,101157.16
2024-03-12T22:52:31.993Z,101149.28
2024-03-12T22:54:59.392Z,101150.16
2024-03-12T22:57:28.078Z,101158.00
2024-03-12T22:59:55.573Z,101155.38
2024-03-12T23:02:23.555Z,101154.53
2024-03-12T23:04:54.687Z,101158.88
2024-03-12T23:07:22.218Z,101161.53
2024-03-12T23:09:49.813Z,101162.41
2024-03-12T23:12:17.100Z,101162.44
2024-03-12T23:14:44.561Z,101159.81
2024-03-12T23:17:11.774Z,101169.44
2024-03-12T23:19:41.985Z,101161.56
2024-03-12T23:22:10.412Z,101161.56
2024-03-12T23:24:39.102Z,101158.94
2024-03-12T23:27:06.741Z,101151.94
2024-03-12T23:29:34.077Z,101154.56
2024-03-12T23:32:01.261Z,101150.19
2024-03-12T23:34:28.575Z,101147.59
2024-03-12T23:36:55.833Z,101158.94
2024-03-12T23:39:24.969Z,101150.22
2024-03-12T23:41:53.659Z,101144.06
2024-03-12T23:44:20.953Z,101146.72
2024-03-12T23:46:48.336Z,101152.00
2024-03-12T23:49:15.538Z,101151.13
2024-03-12T23:51:42.941Z,101153.75
2024-03-12T23:54:10.099Z,101146.75
2024-03-12T23:56:39.522Z,101140.63
2024-03-12T23:59:07.001Z,101148.50
